Date,TemperatureHighF,TemperatureAvgF,TemperatureLowF,DewpointHighF,DewpointAvgF,DewpointLowF,HumidityHigh,HumidityAvg,HumidityLow,PressureMaxIn,PressureMinIn,WindSpeedMaxMPH,WindSpeedAvgMPH,GustSpeedMaxMPH,PrecipitationSumIn
2014-1-1,28.8,25.5,18.0,20.1,16.2,8.4,77,68,56,30.39,30.17,11,2,11,0.00
2014-1-2,28.1,25.5,18.1,22.0,19.9,12.4,89,79,72,30.17,29.72,13,3,13,0.00
2014-1-3,18.0,9.3,-1.4,12.3,-2.7,-10.7,79,59,30,30.48,29.77,9,2,16,0.04
2014-1-4,27.2,11.2,-2.0,7.8,0.4,-7.8,81,64,34,30.49,30.27,12,1,12,0.02
2014-1-5,49.4,23.2,4.3,45.7,17.8,-0.2,96,80,54,30.28,29.59,28,1,28,0.22
2014-1-6,53.9,33.5,3.5,49.7,21.7,-16.5,92,63,31,29.97,29.39,31,7,31,0.40
2014-1-7,6.7,1.8,-3.9,-8.1,-15.5,-19.9,55,43,36,30.41,29.97,27,7,27,0.00
2014-1-8,20.5,12.8,3.4,6.2,-2.0,-8.3,72,52,38,30.56,30.41,13,2,13,0.00
2014-1-9,33.4,21.9,10.2,16.9,10.4,4.6,84,63,37,30.66,30.49,6,1,6,0.00
2014-1-10,36.5,30.5,25.8,31.6,25.8,16.0,94,83,64,30.52,30.11,7,0,7,0.07
2014-1-11,47.9,40.6,33.1,47.7,40.1,31.6,100,98,69,30.11,29.34,14,2,14,0.61
2014-1-12,44.8,37.9,27.5,34.9,27.6,23.9,88,66,59,30.07,29.48,20,4,20,0.00
2014-1-13,51.3,37.3,23.5,37.2,29.0,21.8,96,74,43,30.08,29.78,16,1,16,0.00
2014-1-14,44.9,41.6,33.2,44.8,41.0,33.1,100,98,78,29.87,29.67,6,0,6,0.26
2014-1-15,43.2,35.1,29.5,42.0,32.2,23.2,100,90,64,29.94,29.86,8,1,8,0.00
2014-1-16,37.5,30.4,20.8,23.6,19.1,15.5,89,64,48,29.98,29.85,11,2,11,0.00
2014-1-17,40.3,30.2,20.5,27.4,23.0,17.8,91,76,48,29.93,29.82,8,1,8,0.00
2014-1-18,30.4,25.0,17.8,29.1,16.4,7.4,95,71,45,29.93,29.79,20,3,20,0.02
2014-1-19,33.1,24.1,16.4,21.1,14.6,7.6,77,67,55,29.91,29.65,13,3,18,0.01
2014-1-20,38.5,31.7,21.6,28.4,21.5,14.5,79,66,52,29.92,29.58,13,2,13,0.01
2014-1-21,26.1,15.8,3.4,14.5,4.2,-11.6,80,60,44,30.02,29.90,16,3,16,0.00
2014-1-22,14.8,4.9,-5.0,-4.1,-8.5,-11.4,75,55,34,30.06,29.94,12,2,13,0.01
2014-1-23,18.6,10.5,0.7,9.3,1.1,-6.2,78,66,45,30.33,30.06,13,2,13,0.00
2014-1-24,18.3,12.6,2.0,4.0,-2.8,-6.8,70,50,34,30.44,29.94,28,4,28,0.00
2014-1-25,25.6,21.3,17.3,19.1,4.5,-6.2,83,49,33,29.94,29.38,25,5,25,0.00
2014-1-26,27.2,18.1,11.4,13.9,3.3,-9.0,73,52,38,29.88,29.58,16,3,16,0.00
2014-1-27,32.1,23.7,12.4,24.5,6.9,-8.3,83,50,24,30.15,29.54,26,3,26,0.00
2014-1-28,13.1,9.1,3.2,-2.1,-8.6,-11.7,56,44,33,30.43,30.15,13,3,13,0.00
2014-1-29,20.3,11.6,2.2,-2.8,-7.9,-12.7,57,41,28,30.33,30.14,18,4,18,0.00
2014-1-30,32.1,16.3,1.8,5.8,-0.5,-3.8,80,50,25,30.46,30.12,10,2,14,0.00
2014-1-31,32.8,27.2,20.2,20.1,11.6,1.8,67,52,39,30.22,30.06,14,0,14,0.00
2014-2-1,48.6,36.3,23.5,29.5,20.0,12.3,81,55,27,30.26,29.95,16,1,16,0.00
2014-2-2,38.5,34.2,27.6,34.7,30.5,24.5,96,87,68,30.11,29.91,5,0,5,0.02
2014-2-3,35.3,28.2,11.9,33.8,24.0,7.8,97,84,71,30.36,30.10,10,1,10,0.09
2014-2-4,30.6,20.0,6.7,20.1,12.1,2.6,88,72,51,30.51,30.22,8,1,8,0.14
2014-2-5,34.0,29.2,23.0,33.5,26.1,12.3,99,88,64,30.25,29.63,15,2,15,0.13
2014-2-6,28.2,20.1,9.7,13.9,10.5,5.6,86,67,50,30.34,30.13,14,2,14,0.15
2014-2-7,30.6,19.6,9.2,12.4,6.1,-0.4,83,58,34,30.33,30.24,19,3,19,0.00
2014-2-8,25.1,15.5,4.1,10.4,1.0,-4.8,78,54,28,30.36,30.19,6,1,7,0.00
2014-2-9,23.0,15.3,6.1,17.3,9.8,1.8,88,79,58,30.21,29.99,6,0,6,0.00
2014-2-10,27.9,16.7,5.4,16.7,5.5,-0.2,87,63,36,30.31,30.05,17,2,17,0.11
2014-2-11,24.4,11.5,-2.0,5.1,-0.8,-7.4,79,60,34,30.52,30.31,16,1,16,0.00
2014-2-12,25.1,10.4,-5.2,9.4,-1.5,-11.3,79,60,34,30.58,30.25,11,1,11,0.01
2014-2-13,34.6,27.4,18.4,30.6,23.3,10.0,92,85,67,30.25,29.28,13,2,13,0.12
2014-2-14,38.8,31.4,20.2,24.6,21.2,15.4,84,66,52,29.75,29.28,20,4,20,0.09
2014-2-15,34.0,28.4,20.8,30.2,22.4,7.4,93,79,48,29.92,29.69,18,2,18,0.16
2014-2-16,26.4,17.1,8.6,14.9,7.0,0.9,84,65,46,30.23,29.92,13,2,13,0.00
2014-2-17,31.2,17.4,0.5,10.5,3.3,-5.5,85,56,29,30.46,30.18,11,1,11,0.06
2014-2-18,37.8,28.9,19.2,27.1,19.0,1.6,83,68,33,30.20,29.93,26,3,26,0.09
2014-2-19,44.8,31.6,16.5,34.7,25.1,13.0,88,77,62,30.08,29.67,16,2,16,0.25
2014-2-20,49.6,36.2,19.2,29.5,23.5,15.4,92,63,27,30.25,29.92,20,1,20,0.01
2014-2-21,49.5,38.2,29.0,47.8,34.1,27.0,97,85,67,29.92,29.61,19,1,19,0.51
2014-2-22,53.8,39.9,25.4,27.0,20.1,13.2,84,50,21,30.00,29.90,25,3,25,0.00
2014-2-23,50.2,36.1,21.3,30.0,24.1,18.0,89,64,41,30.03,29.85,13,2,13,0.00
2014-2-24,37.3,29.7,25.0,26.7,11.6,6.7,67,47,36,30.10,29.85,21,4,21,0.00
2014-2-25,31.0,24.0,17.8,18.0,9.9,5.9,73,55,37,30.08,29.96,17,3,17,0.00
2014-2-26,24.2,19.2,11.2,14.2,0.6,-8.1,71,46,24,29.96,29.83,11,2,16,0.00
2014-2-27,26.6,17.7,6.7,13.3,-1.5,-18.3,72,43,27,30.17,29.65,25,5,25,0.00
2014-2-28,22.1,10.7,0.1,-1.4,-9.1,-15.1,64,42,19,30.42,30.17,10,1,10,0.00
2014-3-1,36.2,21.8,6.1,18.7,7.0,-2.5,74,55,31,30.38,30.12,12,1,12,0.00
2014-3-2,34.9,30.2,24.8,28.1,19.2,10.6,87,64,50,30.12,30.02,12,1,12,0.02
2014-3-3,24.7,16.2,7.4,10.9,-2.7,-9.3,63,43,27,30.38,30.06,11,3,14,0.00
2014-3-4,28.8,17.6,3.9,10.9,1.0,-3.3,74,50,27,30.44,30.21,8,1,8,0.00
2014-3-5,34.4,26.0,16.4,12.8,7.1,1.0,66,46,24,30.50,30.17,13,2,18,0.00
2014-3-6,35.2,21.2,9.7,7.9,2.7,-3.2,73,47,21,30.63,30.41,8,2,11,0.00
2014-3-7,45.1,29.8,16.7,25.5,18.1,4.9,85,63,44,30.41,29.94,7,1,7,0.00
2014-3-8,51.6,35.3,20.0,32.5,26.2,17.3,91,71,46,29.94,29.83,11,2,11,0.00
2014-3-9,40.9,35.6,29.3,32.1,17.4,8.0,84,50,26,30.08,29.92,20,3,20,0.00
2014-3-10,56.2,41.8,32.1,33.5,25.7,17.3,79,53,41,29.92,29.57,16,2,16,0.00
2014-3-11,64.5,45.9,29.3,40.1,33.9,26.9,93,67,35,29.68,29.56,13,1,13,0.00
2014-3-12,49.8,40.1,18.9,43.8,32.4,4.5,95,74,52,29.62,28.99,25,2,28,0.26
2014-3-13,23.6,20.1,17.5,6.9,1.3,-6.0,61,45,28,30.12,29.50,24,4,25,0.00
2014-3-14,49.2,32.8,16.5,21.8,12.9,0.1,68,46,26,30.15,29.75,19,3,19,0.00
2014-3-15,52.3,46.3,34.7,34.5,25.3,18.8,65,45,30,30.05,29.67,22,5,22,0.00
2014-3-16,34.9,28.9,25.0,19.8,7.6,1.1,60,41,28,30.23,30.05,13,3,13,0.00
2014-3-17,35.8,26.8,19.4,13.8,0.9,-8.0,53,33,21,30.14,30.00,13,3,13,0.00
2014-3-18,49.9,34.8,25.7,18.0,8.2,-2.0,61,36,14,30.22,30.07,18,2,18,0.00
2014-3-19,39.1,37.1,32.7,37.0,26.0,6.7,94,68,30,30.21,29.80,19,2,19,0.03
2014-3-20,47.7,41.5,37.3,39.3,29.1,20.6,97,64,36,29.94,29.72,26,5,26,0.00
2014-3-21,52.6,39.4,27.9,21.8,18.7,11.8,70,46,20,30.02,29.93,18,3,18,0.00
2014-3-22,60.2,43.1,29.4,33.5,24.3,19.2,75,51,23,30.04,29.74,21,3,21,0.00
2014-3-23,38.2,32.8,22.7,24.1,14.9,3.3,79,50,23,30.21,30.02,12,3,17,0.00
2014-3-24,32.5,23.7,15.4,9.7,3.0,-1.5,65,42,24,30.29,30.12,19,3,19,0.00
2014-3-25,33.4,26.1,16.5,27.9,17.6,6.9,89,71,36,30.14,29.88,18,1,18,0.00
2014-3-26,32.4,25.5,19.1,21.3,6.9,-4.8,91,50,22,30.29,29.86,26,5,26,0.00
2014-3-27,45.1,29.7,12.8,17.6,9.6,3.4,76,46,23,30.41,30.13,17,2,17,0.00
2014-3-28,59.6,46.6,36.2,49.4,37.5,17.4,97,72,41,30.13,29.86,18,3,18,0.22
2014-3-29,48.2,42.7,33.8,46.3,39.9,33.0,99,90,69,30.15,29.61,14,3,14,0.97
2014-3-30,46.2,38.3,33.1,45.9,34.8,30.1,99,88,72,29.86,29.59,14,2,14,0.53
2014-3-31,57.6,43.1,33.2,32.5,29.0,22.1,95,61,28,30.14,29.86,12,2,17,1.19
2014-4-1,61.5,42.5,26.4,37.5,29.2,23.9,92,63,30,30.16,29.91,9,1,9,0.00
2014-4-2,64.7,46.7,34.1,39.1,33.8,28.6,90,65,26,30.10,29.95,12,1,12,0.00
2014-4-3,62.6,49.4,39.5,42.5,29.9,12.4,92,53,14,30.16,29.95,12,2,12,0.10
2014-4-4,46.4,44.0,41.2,43.8,39.8,37.5,96,85,75,29.99,29.72,19,3,19,0.30
2014-4-5,47.0,41.6,30.1,41.5,30.6,22.7,97,67,42,30.14,29.72,24,4,24,0.00
2014-4-6,59.9,40.6,23.9,29.9,23.2,14.4,90,56,19,30.23,30.10,11,1,11,0.00
2014-4-7,49.5,39.7,31.3,45.5,34.6,26.1,98,82,68,30.16,29.56,17,2,17,0.41
2014-4-8,56.3,50.2,35.5,51.4,41.3,32.0,97,74,46,29.67,29.40,20,4,29,0.04
2014-4-9,52.6,38.2,32.4,32.0,29.0,20.4,94,73,28,30.02,29.67,4,0,7,0.00
2014-4-10,64.5,60.8,59.6,32.1,31.1,28.7,35,32,27,30.02,29.89,19,4,21,0.00
2014-4-11,66.3,56.5,48.8,53.0,44.1,30.9,96,66,31,30.02,29.85,24,2,24,0.15
2014-4-12,71.8,56.7,44.1,47.5,39.0,28.9,94,59,23,30.24,30.02,13,2,13,0.00
2014-4-13,83.2,68.5,54.7,52.9,46.9,28.3,66,48,26,30.08,29.85,20,4,20,0.00
2014-4-14,77.0,70.9,64.3,54.4,52.2,48.6,66,52,40,29.89,29.70,35,7,35,0.00
2014-4-15,69.1,53.0,32.2,63.6,46.6,19.3,99,80,52,30.03,29.47,21,4,21,1.97
2014-4-16,46.0,34.2,24.7,20.6,13.5,7.9,62,43,26,30.57,30.03,18,4,18,0.06
2014-4-17,56.2,42.4,28.4,28.0,22.9,16.5,73,48,27,30.66,30.51,18,3,18,0.00
2014-4-18,56.5,44.0,31.6,34.8,29.4,26.0,84,58,37,30.58,30.24,13,2,13,0.00
2014-4-19,62.6,48.4,33.8,37.6,27.7,14.2,92,53,17,30.36,30.23,18,3,18,0.00
2014-4-20,67.9,51.5,32.7,33.4,30.0,26.8,86,49,24,30.44,30.26,13,2,13,0.00
2014-4-21,74.4,55.2,34.4,33.3,27.2,18.0,84,41,14,30.27,29.80,13,2,13,0.00
2014-4-22,65.6,54.6,46.2,53.7,42.4,30.2,94,65,37,29.80,29.51,19,2,19,0.05
2014-4-23,54.7,46.8,35.6,36.8,32.0,25.8,77,56,44,29.95,29.61,22,4,22,0.00
2014-4-24,60.7,46.5,28.8,28.0,18.6,10.9,77,37,15,30.07,29.95,16,3,19,0.00
2014-4-25,67.1,49.8,35.2,46.1,28.6,15.0,94,50,17,30.03,29.71,18,2,18,0.25
2014-4-26,70.1,54.7,42.2,46.5,38.5,22.9,98,61,22,29.92,29.65,20,4,20,0.05
2014-4-27,59.8,49.1,36.8,35.2,31.6,28.2,80,52,31,30.15,29.92,14,3,14,0.00
2014-4-28,64.2,50.4,32.4,37.0,32.2,27.3,91,55,27,30.15,29.96,11,2,11,0.00
2014-4-29,57.5,48.0,42.6,43.5,39.8,35.5,89,74,46,30.27,30.00,12,4,19,0.31
2014-4-30,55.4,48.9,42.3,52.5,44.4,38.5,91,85,78,30.28,29.80,16,5,24,0.51
2014-5-1,72.5,61.2,52.8,56.2,49.6,37.5,100,70,39,29.81,29.68,22,3,22,0.18
2014-5-2,62.3,52.5,40.6,43.0,38.0,31.6,94,61,33,29.85,29.75,18,3,18,0.00
2014-5-3,66.0,53.9,41.5,48.0,40.5,36.2,95,64,37,29.86,29.69,20,3,20,0.03
2014-5-4,60.4,52.4,45.5,47.8,37.5,29.5,96,59,32,29.91,29.72,24,4,24,0.01
2014-5-5,64.5,52.6,40.1,36.8,30.3,20.9,76,47,19,29.98,29.85,16,2,16,0.00
2014-5-6,68.1,54.3,39.1,36.3,31.3,26.2,75,46,23,30.09,29.89,17,2,17,0.00
2014-5-7,66.3,53.1,37.2,46.8,34.9,27.9,87,55,26,30.22,30.09,6,1,10,0.00
2014-5-8,80.7,63.4,51.4,57.9,52.5,45.2,97,71,40,30.14,29.96,10,1,10,0.12
2014-5-9,82.8,67.7,55.0,61.1,56.7,52.4,93,70,41,30.09,29.88,12,1,12,0.00
2014-5-10,79.4,69.2,60.5,64.0,58.7,53.8,99,71,44,29.89,29.82,22,4,22,0.00
2014-5-11,80.3,66.6,50.7,58.1,47.4,35.6,97,57,22,30.07,29.88,14,2,14,0.00
2014-5-12,81.8,65.9,50.1,59.4,51.6,44.6,93,64,28,30.10,30.01,8,1,8,0.00
2014-5-13,87.8,69.0,56.5,62.6,55.8,43.3,97,66,41,30.17,30.01,11,1,17,0.00
2014-5-14,72.3,62.6,50.2,61.1,52.6,39.8,88,71,51,30.24,30.11,11,1,11,0.02
2014-5-15,80.3,70.9,65.0,66.4,61.6,59.3,83,73,57,30.13,29.90,26,3,26,0.00
2014-5-16,72.5,61.5,52.0,63.4,55.0,46.9,99,80,64,29.92,29.73,14,3,19,1.93
2014-5-17,63.1,54.3,45.8,47.7,41.2,33.4,95,64,34,30.15,29.90,13,2,13,0.00
2014-5-18,62.9,50.9,40.1,43.7,39.5,28.8,97,69,29,30.24,30.15,11,1,11,0.00
2014-5-19,69.6,52.7,36.8,50.9,40.8,31.6,98,69,28,30.27,30.13,25,2,25,0.02
2014-5-20,76.3,58.6,43.2,56.1,46.0,36.5,100,70,27,30.20,30.00,14,1,14,0.03
2014-5-21,62.7,58.7,56.0,59.2,56.9,52.9,100,94,82,30.04,29.86,6,1,6,0.08
2014-5-22,78.1,65.5,58.4,66.8,60.5,48.3,100,86,55,29.87,29.72,14,1,14,0.74
2014-5-23,73.9,58.6,47.1,55.8,50.0,41.4,100,76,35,30.01,29.85,16,1,16,0.30
2014-5-24,74.6,61.9,51.9,57.6,52.0,48.9,94,72,46,30.10,29.99,9,1,9,0.00
2014-5-25,81.6,64.5,49.6,58.3,49.2,39.3,100,66,23,30.15,30.02,11,2,11,0.00
2014-5-26,85.7,68.0,49.2,56.9,51.9,47.4,100,63,28,30.10,29.89,16,2,16,0.00
2014-5-27,84.9,68.4,58.6,69.8,61.2,54.8,100,80,50,29.92,29.80,22,1,22,0.35
2014-5-28,81.8,70.4,59.3,67.6,61.2,51.2,100,77,37,30.09,29.79,12,2,12,0.00
2014-5-29,59.5,56.9,54.7,53.0,49.7,47.4,87,77,68,30.19,30.09,10,1,10,0.00
2014-5-30,78.5,64.6,54.4,54.1,49.6,42.4,96,63,30,30.14,30.01,12,2,12,0.00
2014-5-31,77.2,62.6,47.6,52.4,44.1,32.9,99,58,23,30.26,30.11,21,2,21,0.00
2014-6-1,79.8,64.2,47.0,54.8,49.0,45.9,98,62,32,30.34,30.19,12,2,12,0.00
2014-6-2,85.7,70.6,52.2,62.9,55.3,46.2,89,61,40,30.22,29.98,17,2,17,0.00
2014-6-3,84.7,71.5,62.0,67.1,63.6,61.3,100,79,51,29.99,29.77,20,2,20,0.38
2014-6-4,79.2,67.2,58.0,63.4,57.4,48.5,100,75,37,29.89,29.74,11,1,11,0.11
2014-6-5,73.9,65.6,58.1,61.3,55.0,47.5,100,72,41,29.83,29.68,14,1,14,0.43
2014-6-6,75.3,64.2,53.6,54.2,50.1,47.0,89,62,39,29.97,29.82,12,1,12,0.00
2014-6-7,85.3,66.7,50.8,58.0,53.0,46.7,100,68,28,30.05,29.90,11,1,11,0.00
2014-6-8,84.5,69.4,53.5,64.2,57.1,49.9,100,69,35,29.95,29.80,14,2,14,0.07
2014-6-9,75.4,69.1,64.7,66.2,64.4,61.5,100,85,71,29.91,29.81,6,1,6,0.12
2014-6-10,84.5,73.6,66.8,68.8,65.7,63.8,93,77,54,29.93,29.87,10,2,10,0.00
2014-6-11,72.7,68.9,65.6,68.0,63.5,59.7,93,83,78,30.02,29.90,14,2,14,0.05
2014-6-12,73.0,67.8,62.9,66.7,63.2,60.3,99,86,75,30.03,29.83,18,2,18,0.31
2014-6-13,79.6,71.5,65.0,72.2,66.9,62.5,100,86,62,29.83,29.69,11,1,11,0.15
2014-6-14,67.1,62.3,53.3,65.3,53.5,47.2,100,75,52,30.08,29.82,17,2,17,0.01
2014-6-15,80.7,69.5,51.1,60.3,55.2,50.7,100,63,40,30.18,30.05,11,2,11,0.00
2014-6-16,88.2,70.9,54.1,70.2,59.5,50.8,100,73,31,30.14,29.98,12,1,12,0.10
2014-6-17,88.2,83.7,68.4,73.9,69.7,66.7,99,63,49,30.03,29.85,11,3,14,0.00
2014-6-18,88.8,78.3,66.9,70.1,64.6,58.8,90,65,39,29.96,29.83,18,2,18,0.00
2014-6-19,77.6,70.2,56.5,68.2,64.5,49.4,100,83,48,30.06,29.90,8,1,8,0.00
2014-6-20,81.1,64.4,47.0,57.7,48.8,41.6,96,61,27,30.08,29.92,12,1,12,0.30
2014-6-21,80.7,67.9,52.6,58.8,50.5,38.8,83,56,35,29.96,29.84,8,1,8,0.00
2014-6-22,84.9,69.3,55.6,57.9,54.0,46.1,98,64,28,29.99,29.89,7,1,7,0.00
2014-6-23,83.6,71.8,58.0,62.1,58.6,55.5,99,66,44,30.08,29.98,13,2,13,0.00
2014-6-24,86.1,75.3,66.0,67.2,61.5,55.0,83,63,52,30.09,29.93,18,2,18,0.00
2014-6-25,89.5,76.5,68.9,70.8,67.4,62.4,100,76,46,29.95,29.77,25,2,25,0.00
2014-6-26,87.8,74.7,67.3,70.9,65.5,59.3,100,76,42,29.98,29.80,14,2,14,0.15
2014-6-27,88.6,74.2,61.8,65.2,61.5,53.1,100,69,31,30.16,29.98,8,1,8,0.00
2014-6-28,87.2,75.1,64.0,66.0,60.0,49.4,100,64,35,30.25,30.16,11,1,11,0.00
2014-6-29,83.0,73.8,61.6,63.8,60.1,55.6,100,65,41,30.21,30.07,12,2,17,0.00
2014-6-30,87.0,75.9,66.0,68.9,64.5,57.8,95,69,49,30.07,29.89,18,2,18,0.03
2014-7-1,91.6,79.9,68.9,72.9,69.3,66.8,95,72,46,29.91,29.75,17,2,17,0.00
2014-7-2,91.2,78.4,69.9,74.5,71.4,64.7,100,81,54,29.88,29.78,18,1,18,0.05
2014-7-3,90.3,74.3,68.8,76.5,69.8,65.2,100,89,49,29.97,29.82,17,1,17,0.20
2014-7-4,73.3,67.3,56.5,69.1,56.3,44.7,100,71,38,30.15,29.96,21,3,21,0.01
2014-7-5,82.2,67.2,52.3,55.4,50.5,42.4,93,60,27,30.23,30.10,12,2,12,0.00
2014-7-6,84.0,69.8,54.1,62.8,55.5,46.6,99,65,29,30.11,29.89,12,2,13,0.00
2014-7-7,90.5,78.5,67.6,68.0,61.3,53.7,98,58,34,29.89,29.68,25,4,25,0.03
2014-7-8,89.9,75.6,66.4,70.6,67.4,63.7,100,80,47,29.79,29.59,30,3,30,0.29
2014-7-9,86.7,74.7,65.3,67.9,64.7,56.4,100,74,37,29.96,29.74,18,3,18,0.00
2014-7-10,82.6,71.7,62.3,64.5,61.1,55.4,100,72,45,30.13,29.96,11,1,11,0.00
2014-7-11,87.0,72.9,59.6,62.8,58.5,47.7,98,65,27,30.20,30.12,8,1,8,0.00
2014-7-12,87.2,74.4,61.8,69.3,64.9,61.4,100,74,48,30.19,30.05,18,2,18,0.00
2014-7-13,85.9,77.3,69.1,70.4,68.0,64.5,100,74,55,30.05,29.82,29,3,29,0.13
2014-7-14,78.5,73.8,69.8,73.9,70.4,67.1,100,90,69,29.89,29.78,7,0,7,0.04
2014-7-15,82.6,73.8,69.6,71.1,69.0,65.8,100,86,60,29.81,29.69,11,1,11,0.00
2014-7-16,79.8,70.4,61.2,68.6,57.3,48.0,95,67,35,29.92,29.74,12,2,12,0.00
2014-7-17,78.5,67.1,56.9,57.5,53.6,45.3,95,65,34,30.13,29.92,19,2,19,0.00
2014-7-18,79.2,65.4,52.2,59.9,54.1,49.3,100,71,37,30.26,30.13,9,1,9,0.00
2014-7-19,82.6,69.2,59.9,61.9,58.1,54.5,92,70,38,30.21,30.12,10,1,10,0.00
2014-7-20,85.5,72.0,62.0,63.7,59.4,54.8,95,67,38,30.15,30.05,12,1,12,0.00
2014-7-21,84.0,72.8,62.3,66.6,63.9,60.6,96,76,52,30.18,30.09,12,1,12,0.00
2014-7-22,89.3,75.4,64.8,70.0,67.2,64.1,100,78,50,30.16,29.99,12,1,12,0.00
2014-7-23,92.5,78.0,68.1,74.5,69.1,61.8,100,76,47,29.99,29.74,17,2,17,0.03
2014-7-24,76.5,70.3,58.0,62.6,55.2,48.7,88,61,41,29.98,29.85,13,2,13,0.00
2014-7-25,83.8,65.3,48.3,55.6,50.3,44.2,99,64,27,30.08,29.95,8,1,8,0.00
2014-7-26,84.7,68.8,57.2,63.0,57.7,52.8,92,71,37,30.00,29.84,11,1,11,0.00
2014-7-27,90.1,75.9,64.5,67.0,63.4,59.9,98,68,38,29.84,29.60,17,2,17,0.06
2014-7-28,79.8,68.3,62.9,67.1,62.2,54.7,100,82,50,29.79,29.50,20,3,20,0.03
2014-7-29,73.5,63.5,55.0,57.5,52.8,46.4,99,71,40,29.98,29.79,13,1,13,0.01
2014-7-30,77.9,64.6,51.3,59.3,54.3,50.5,100,73,41,30.06,29.97,12,2,12,0.01
2014-7-31,80.3,68.1,59.2,63.6,60.8,58.2,100,80,49,30.11,30.01,14,2,14,0.01
2014-8-1,84.0,69.7,60.7,67.9,63.1,60.6,100,81,52,30.16,30.09,20,1,20,0.00
2014-8-2,83.6,72.7,65.3,65.2,63.0,58.7,96,74,46,30.16,30.03,11,1,11,0.00
2014-8-3,79.2,71.2,64.5,66.4,64.4,63.0,97,80,60,30.08,30.00,9,1,9,0.00
2014-8-4,87.0,72.7,64.5,64.9,62.3,58.5,92,72,42,30.08,30.01,10,1,10,0.00
2014-8-5,88.8,71.9,61.3,67.1,61.1,52.1,100,75,31,30.06,29.90,29,2,29,0.01
2014-8-6,82.2,70.2,63.7,64.2,60.7,55.3,100,74,41,29.95,29.86,10,1,11,0.00
2014-8-7,81.4,67.3,54.5,58.7,54.1,48.4,96,66,33,30.05,29.93,9,2,13,0.00
2014-8-8,82.2,65.6,50.8,57.8,53.2,49.2,100,69,33,30.15,30.04,11,1,11,0.00
2014-8-9,87.4,68.6,53.3,58.6,54.1,46.5,100,67,26,30.16,30.05,10,1,10,0.00
2014-8-10,88.8,70.4,54.1,60.7,55.3,49.2,100,65,28,30.15,30.05,10,1,10,0.00
2014-8-11,86.7,71.7,56.9,62.8,56.0,47.8,100,63,28,30.11,29.99,20,2,20,0.00
2014-8-12,73.2,69.2,65.6,67.9,64.4,57.8,98,85,59,30.00,29.75,25,2,25,0.43
2014-8-13,78.5,70.6,58.9,69.8,63.1,52.7,100,79,53,29.86,29.71,20,2,20,0.13
2014-8-14,77.7,63.9,51.7,56.4,51.8,44.1,100,69,34,29.92,29.80,14,2,14,0.00
2014-8-15,70.3,60.2,49.5,56.4,50.0,46.0,95,72,45,29.98,29.92,14,2,14,0.00
2014-8-16,77.6,63.5,52.2,59.3,52.8,44.3,100,73,32,30.02,29.89,12,2,12,0.00
2014-8-17,79.8,67.1,58.0,63.6,58.4,54.3,99,76,44,29.93,29.85,13,1,13,0.02
2014-8-18,80.3,66.0,53.9,62.3,56.9,53.5,100,76,41,29.95,29.81,11,1,11,0.00
2014-8-19,83.2,68.8,56.3,66.6,59.6,54.0,95,75,49,29.90,29.83,8,1,8,0.00
2014-8-20,82.4,71.8,64.2,68.1,66.0,63.9,100,83,59,29.97,29.88,12,1,12,0.00
2014-8-21,84.5,73.7,65.5,69.6,66.3,63.0,98,79,55,30.02,29.92,12,1,13,0.00
2014-8-22,83.2,72.7,68.1,69.3,67.2,63.9,96,84,57,29.99,29.91,8,1,11,0.01
2014-8-23,69.1,64.9,62.6,65.6,62.8,60.9,100,93,84,30.12,29.99,7,1,7,0.03
2014-8-24,82.6,69.6,60.7,63.9,59.9,50.6,100,76,36,30.17,30.08,8,1,8,0.00
2014-8-25,85.1,68.7,58.3,64.3,58.8,47.4,100,76,28,30.20,30.11,7,1,7,0.00
2014-8-26,85.3,69.6,59.0,66.3,61.0,57.2,100,78,40,30.19,30.05,11,1,11,0.00
2014-8-27,88.6,72.0,59.9,71.4,65.3,59.9,100,83,49,30.06,29.86,13,1,13,0.01
2014-8-28,76.7,66.1,55.4,70.3,54.7,47.0,100,70,41,30.11,29.92,13,2,13,0.01
2014-8-29,78.6,62.9,49.8,61.6,53.3,48.8,100,75,41,30.22,30.11,7,1,7,0.00
2014-8-30,75.6,67.5,56.3,64.9,60.3,54.9,100,79,66,30.22,30.08,12,2,12,0.00
2014-8-31,80.5,74.5,69.4,73.3,69.5,64.4,99,85,71,30.09,29.95,8,1,8,0.01
2014-9-1,85.7,75.2,68.3,73.5,69.8,67.9,100,85,57,30.00,29.88,10,1,10,0.01
2014-9-2,88.8,78.5,68.4,75.0,69.0,64.3,100,76,46,29.93,29.75,14,3,14,0.01
2014-9-3,82.0,70.4,62.1,66.9,62.5,57.1,100,79,43,30.12,29.88,10,1,13,0.01
2014-9-4,86.5,72.5,59.8,67.7,63.7,59.3,100,77,52,30.18,30.06,10,2,12,0.00
2014-9-5,87.4,76.4,67.3,71.9,68.6,65.0,96,79,54,30.13,29.98,11,2,12,0.00
2014-9-6,87.4,74.4,63.5,73.9,68.9,61.6,100,85,52,29.99,29.82,15,2,15,0.01
2014-9-7,76.8,65.0,54.2,62.5,54.6,47.7,98,73,37,30.20,29.99,10,1,11,0.01
2014-9-8,79.2,64.5,52.8,59.8,54.5,51.7,98,73,43,30.29,30.20,14,1,17,0.00
2014-9-9,75.3,65.8,56.7,61.4,57.5,53.7,93,75,58,30.25,30.10,9,1,10,0.00
2014-9-10,76.0,69.5,62.6,62.1,60.3,58.9,92,73,59,30.11,29.92,11,1,11,0.00
2014-9-11,83.4,72.9,60.4,69.3,63.7,54.4,87,73,50,30.02,29.80,19,3,19,0.02
2014-9-12,68.8,59.5,52.0,55.6,50.5,46.6,96,73,54,30.22,30.02,12,2,12,0.00
2014-9-13,64.5,55.3,49.8,59.0,52.7,45.8,99,91,78,30.23,30.09,9,1,9,0.01
2014-9-14,67.4,54.0,44.1,51.6,46.7,42.6,100,80,45,30.33,30.19,7,1,10,0.00
2014-9-15,70.8,56.1,45.4,53.3,48.0,41.4,100,79,37,30.27,30.03,8,1,10,0.00
2014-9-16,69.4,58.8,52.6,55.1,51.9,48.2,98,80,49,30.04,29.98,10,1,10,0.00
2014-9-17,71.5,56.8,48.5,53.4,48.5,41.6,100,79,36,30.09,29.95,11,1,13,0.00
2014-9-18,73.7,58.2,47.0,54.4,49.3,45.3,100,76,38,30.15,29.96,10,1,10,0.00
2014-9-19,72.8,58.3,45.5,52.6,47.9,43.4,95,70,47,30.31,30.15,15,2,15,0.00
2014-9-20,76.1,67.0,58.4,61.7,56.7,51.6,81,70,54,30.26,30.00,12,3,17,0.66
2014-9-21,83.4,69.5,56.0,64.2,59.8,55.1,100,73,47,30.01,29.57,16,2,16,0.00
2014-9-22,64.8,59.2,45.1,57.8,46.7,40.0,85,64,45,30.21,29.69,18,3,18,0.00
2014-9-23,72.7,54.1,38.9,53.3,44.9,38.1,98,75,39,30.39,30.21,7,1,7,0.00
2014-9-24,73.9,59.8,46.8,55.6,50.8,46.5,100,76,46,30.53,30.39,10,1,10,0.00
2014-9-25,71.8,59.9,53.5,57.4,53.8,50.9,96,81,57,30.44,30.24,8,1,8,0.02
2014-9-26,77.4,60.6,51.0,58.1,53.2,49.6,100,81,41,30.30,30.17,11,1,11,0.00
2014-9-27,82.4,62.2,49.6,61.6,55.0,49.6,100,82,39,30.29,30.16,6,1,6,0.00
2014-9-28,82.2,64.1,53.5,63.2,56.4,48.6,100,80,32,30.20,30.01,10,1,10,0.00
2014-9-29,76.8,63.8,56.2,62.6,58.3,55.5,100,84,52,30.01,29.88,5,0,6,0.00
2014-9-30,74.7,64.2,56.3,65.5,59.6,55.9,100,86,64,29.94,29.84,7,0,7,0.00
2014-10-1,75.4,64.7,56.9,63.0,58.6,55.8,98,82,52,30.07,29.94,8,1,11,0.06
2014-10-2,66.8,58.8,55.0,59.9,56.5,54.3,100,93,78,30.09,30.06,1,0,1,0.00
2014-10-3,72.1,61.7,52.6,60.1,55.6,52.6,100,82,58,30.08,29.69,21,2,21,0.02
2014-10-4,62.4,55.8,39.9,59.9,47.9,33.6,100,76,39,29.78,29.55,20,3,20,0.08
2014-10-5,55.9,45.4,34.9,42.0,36.8,32.8,96,74,45,29.97,29.77,13,1,15,0.00
2014-10-6,70.3,55.9,38.2,47.7,42.5,36.5,96,64,38,29.98,29.86,22,2,22,0.00
2014-10-7,71.3,62.8,54.4,57.0,50.6,43.1,91,66,37,29.97,29.74,19,3,19,0.04
2014-10-8,70.4,61.3,52.2,57.2,47.7,37.7,90,64,36,29.94,29.72,24,5,24,0.00
2014-10-9,64.3,53.6,40.8,43.4,39.5,35.1,92,62,36,30.06,29.94,25,3,25,0.00
2014-10-10,60.4,49.8,37.6,45.8,41.8,36.0,99,76,49,30.14,30.05,6,0,6,0.00
2014-10-11,61.5,51.8,46.8,51.2,47.0,40.7,99,85,61,30.19,30.03,7,1,7,0.10
2014-10-12,65.8,48.9,35.8,47.9,38.8,32.8,100,73,32,30.31,30.19,11,1,11,0.00
2014-10-13,61.8,57.9,51.0,57.9,51.6,42.7,89,80,70,30.27,30.17,12,1,12,0.00
2014-10-14,75.3,70.2,60.5,64.1,62.4,57.7,93,77,65,30.17,29.95,21,2,21,0.00
2014-10-15,72.8,67.6,62.6,66.5,64.4,62.0,100,90,73,29.95,29.71,22,2,22,0.68
2014-10-16,71.5,62.2,52.9,64.3,58.2,51.5,100,88,53,29.71,29.62,14,2,14,0.20
2014-10-17,69.9,60.6,52.9,54.7,51.6,46.6,99,75,45,29.73,29.59,17,2,17,0.00
2014-10-18,64.2,57.2,51.0,53.3,46.6,39.2,96,69,49,29.81,29.54,19,3,19,0.00
2014-10-19,53.2,45.7,35.9,41.1,31.7,23.6,87,60,33,30.08,29.81,18,3,18,0.00
2014-10-20,60.9,47.0,32.9,45.0,36.6,31.0,95,70,40,30.09,29.88,20,1,20,0.00
2014-10-21,60.2,53.5,47.4,54.4,48.3,44.6,100,83,61,29.93,29.81,8,0,8,0.01
2014-10-22,54.7,52.6,49.8,49.7,46.2,43.0,94,79,72,30.00,29.90,16,2,16,0.00
2014-10-23,55.6,51.7,47.6,45.5,43.4,41.8,88,73,60,29.93,29.84,17,2,17,0.00
2014-10-24,69.6,56.3,42.6,48.2,42.2,32.4,86,61,29,29.92,29.81,17,2,17,0.00
2014-10-25,68.8,53.3,36.6,49.3,41.2,33.6,92,66,39,29.92,29.58,14,2,14,0.00
2014-10-26,61.5,54.2,44.5,44.0,37.1,31.5,75,53,39,29.89,29.57,20,3,20,0.00
2014-10-27,65.3,48.2,33.5,42.0,36.6,31.7,96,68,31,30.06,29.89,12,1,12,0.00
2014-10-28,80.3,58.8,41.2,53.7,45.3,37.7,90,65,37,30.00,29.83,20,1,20,0.00
2014-10-29,66.9,54.4,44.2,59.3,50.8,43.4,100,88,67,29.96,29.82,6,1,8,0.09
2014-10-30,53.9,44.9,36.6,46.2,37.7,32.6,100,79,48,30.05,29.95,12,1,12,0.00
2014-10-31,54.1,43.1,31.8,38.2,33.5,29.3,96,72,40,30.03,29.86,8,1,8,0.00
2014-11-1,51.0,45.2,41.6,42.7,36.1,27.3,96,71,52,29.95,29.82,19,3,19,0.01
2014-11-2,46.7,40.3,32.9,31.0,23.3,14.8,70,51,29,30.18,29.94,27,5,27,0.00
2014-11-3,58.6,46.1,31.6,34.3,24.7,14.1,78,48,18,30.23,30.12,19,3,19,0.00
2014-11-4,68.9,53.9,40.6,37.4,30.8,20.5,71,46,18,30.15,29.96,18,1,18,0.00
2014-11-5,59.9,52.5,44.1,47.6,37.1,31.5,79,57,35,30.15,29.95,17,2,17,0.00
2014-11-6,50.8,46.3,42.9,48.0,43.1,36.9,100,89,72,30.09,29.62,11,1,11,0.06
2014-11-7,46.4,41.1,28.8,41.9,32.6,23.4,92,72,52,30.00,29.66,18,2,18,0.02
2014-11-8,49.1,38.0,25.8,31.5,26.0,23.5,92,65,38,30.03,29.85,14,2,14,0.00
2014-11-9,53.1,41.2,31.2,35.4,31.2,28.3,91,70,39,30.01,29.85,11,1,13,0.00
2014-11-10,64.7,45.5,29.1,37.8,32.9,27.1,95,66,28,30.14,30.01,11,1,11,0.00
2014-11-11,65.2,51.8,33.8,55.1,43.5,31.7,96,75,49,30.07,29.84,12,1,12,0.00
2014-11-12,57.5,48.1,31.3,54.2,37.6,25.9,100,71,36,30.12,29.81,24,2,24,0.00
2014-11-13,42.3,34.8,26.1,33.1,27.6,23.6,92,76,53,30.14,30.02,5,1,7,0.01
2014-11-14,40.2,33.8,23.9,27.8,20.7,15.7,83,60,38,30.23,30.02,12,2,14,0.00
2014-11-15,41.1,31.4,22.1,26.6,20.0,15.4,86,65,38,30.38,30.23,13,1,13,0.00
2014-11-16,41.3,35.7,23.5,30.6,22.4,19.4,86,60,46,30.34,30.02,17,2,17,0.00
2014-11-17,41.9,38.3,34.6,41.6,35.8,24.1,99,91,65,30.02,29.50,17,2,17,0.22
2014-11-18,34.6,22.9,19.4,23.4,4.3,-1.1,64,44,31,30.14,29.68,28,8,28,0.01
2014-11-19,29.3,23.4,15.7,12.8,5.8,1.4,62,47,36,30.30,29.94,18,4,18,0.00
2014-11-20,39.1,32.3,24.8,18.2,12.2,5.7,52,43,36,30.06,29.87,25,5,25,0.00
2014-11-21,34.7,25.9,18.1,11.6,9.3,5.4,71,50,29,30.51,30.06,14,3,17,0.00
2014-11-22,39.6,27.8,13.3,24.1,14.9,7.8,86,61,27,30.51,30.03,13,1,13,0.00
2014-11-23,58.4,44.5,32.2,45.5,28.3,22.8,80,56,28,30.14,29.82,14,1,14,0.00
2014-11-24,70.8,63.9,51.1,57.2,52.8,41.4,90,68,48,29.82,29.44,31,6,31,0.09
2014-11-25,61.2,46.9,34.4,41.4,29.5,27.1,82,53,31,30.17,29.70,22,4,22,0.00
2014-11-26,38.0,33.7,30.7,32.5,31.2,29.6,98,91,72,30.19,29.92,12,0,12,0.04
2014-11-27,35.5,30.8,24.8,31.1,28.3,22.8,98,91,77,30.10,29.95,9,0,9,0.14
2014-11-28,33.5,26.9,18.6,28.0,19.0,12.6,96,74,43,30.27,30.09,13,1,13,0.02
2014-11-29,35.5,25.5,15.9,27.5,18.8,13.0,89,76,61,30.32,30.11,11,1,11,0.00
2014-11-30,42.1,37.6,34.7,35.7,32.2,27.3,90,81,69,30.11,30.00,11,0,11,0.11
2014-12-1,43.3,38.1,33.1,40.8,32.9,21.6,96,82,57,30.51,30.05,11,1,11,0.04
2014-12-2,35.2,31.4,28.1,33.0,24.2,16.2,98,76,55,30.61,30.25,11,1,11,0.12
2014-12-3,40.8,36.0,31.9,37.0,32.6,23.1,100,89,56,30.25,29.99,16,2,16,0.07
2014-12-4,37.5,31.5,23.9,26.0,23.6,21.1,90,73,54,30.50,30.25,13,1,13,0.00
2014-12-5,36.9,31.1,21.8,35.5,27.7,19.6,98,87,73,30.54,30.30,7,1,7,0.17
2014-12-6,40.9,38.2,35.8,40.8,36.8,26.4,100,96,63,30.34,30.09,17,1,17,0.27
2014-12-7,40.9,34.0,26.3,26.4,16.2,7.0,70,50,27,30.62,30.34,18,3,18,0.00
2014-12-8,33.1,27.9,20.2,26.7,17.8,2.8,83,67,36,30.66,30.31,13,2,13,0.00
2014-12-9,39.5,35.7,31.8,38.0,33.6,27.0,95,92,79,30.31,29.85,57,1,57,0.11
2014-12-10,39.3,34.7,27.8,33.8,27.6,20.9,90,75,64,29.85,29.73,25,4,25,0.00
2014-12-11,32.4,29.5,27.0,29.0,26.6,24.4,93,89,82,29.91,29.72,17,3,17,0.06
2014-12-12,35.8,32.4,29.0,30.2,25.3,22.5,91,75,63,30.07,29.91,8,2,13,0.03
2014-12-13,37.0,34.1,29.5,30.3,27.4,23.9,83,76,71,30.07,29.97,11,2,12,0.01
2014-12-14,43.3,38.2,33.8,35.3,31.8,27.3,86,78,68,30.02,29.92,10,1,10,0.00
2014-12-15,40.8,39.5,38.0,33.6,32.9,32.0,83,77,74,30.10,30.01,7,1,7,0.00
2014-12-16,45.4,41.9,37.9,42.1,37.8,33.2,98,86,73,30.05,29.83,73,1,73,0.05
2014-12-17,48.8,41.3,35.2,41.8,34.2,22.0,98,77,56,29.97,29.83,112,4,113,0.01
2014-12-18,36.8,34.9,33.4,26.5,23.5,20.4,71,63,55,30.07,29.97,16,4,16,0.00
2014-12-19,36.9,33.7,31.9,27.6,22.7,19.5,80,64,51,30.22,30.02,14,3,14,0.00
2014-12-20,34.9,31.5,30.1,22.9,20.4,18.3,70,63,57,30.30,30.20,11,1,11,0.00
2014-12-21,36.3,29.7,22.2,23.0,20.6,18.7,86,69,51,30.34,30.26,8,1,8,0.00
2014-12-22,41.9,30.1,19.4,33.1,24.7,16.7,95,81,57,30.34,30.11,73,0,73,0.03
2014-12-23,48.6,42.6,34.0,47.0,40.6,32.7,100,93,83,30.11,29.98,85,1,85,0.08
2014-12-24,59.8,49.3,45.2,56.1,48.0,42.8,100,96,83,29.99,29.41,112,1,112,0.25
2014-12-25,59.8,45.0,34.1,54.7,35.2,27.8,91,69,55,30.16,29.41,64,5,64,0.12
2014-12-26,48.0,34.8,26.4,31.5,27.8,24.1,93,77,48,30.30,30.15,6,1,11,0.00
2014-12-27,54.8,38.6,27.0,38.1,31.5,25.8,96,78,43,30.29,29.98,7,0,7,0.00
2014-12-28,49.2,43.7,37.3,42.4,36.3,23.8,96,76,57,30.11,29.85,11,1,11,0.01
2014-12-29,41.5,32.6,26.6,27.2,22.4,17.3,89,68,41,30.26,30.11,12,1,12,0.00
2014-12-30,34.4,29.5,25.4,23.6,13.4,6.7,82,52,32,30.43,30.26,14,2,14,0.00
2014-12-31,29.5,23.6,16.7,13.6,8.1,3.6,67,51,36,30.38,30.14,18,3,18,0.00
2015-1-1,39.2,28.1,18.4,16.2,8.8,3.8,57,45,28,30.15,29.93,22,4,22,0.00
2015-1-2,39.5,32.3,23.3,20.7,18.1,14.1,81,57,42,30.45,30.00,16,2,16,0.00